| |
Missouri Department of Transportation

Social Media Facebook Twitter Flickr Instagram YouTube RSS

Current AWOS Information

 
AWOS Home - General Info for all Airports
Current AWOS for all Airports - Current METAR for all Airports
Glossary - Disclaimer - Other Links


HANNIBAL--HANNIBAL REGIONAL--KHAE
 
Recent AWOS History
 
07/27/16     10:34 PM CDT      03:34 GMT
Air Temperature 75°F (24°C ) 1st Cloud Layer Broken at 5,000 feet
Dew Point 67°F (19°C) 2nd Cloud Layer Broken at 6,000 feet
Barometric Pressure 30.02 in Hg. 3rd Cloud Layer  
Wind Speed 3 mph (3 knots) Density Altitude 1900 feet
Peak Wind Gusts   Variable Wind Directions  
Wind Direction Quadrant(020°) Variable Visibility  
Visibility 10 statute miles  

Thunderstorm and Precipitation Identification: 
Thunderstorm Remarks: 

Current METAR Record: METAR KHAE 270334Z AUTO 02003KT 10SM BKN050 BKN060 24/20 A3002 RMK AO2

 

 

 

About Us
How Do I...
Contact Us
Missouri Department of Transportation
Central Office
105 W. Capitol Avenue
Jefferson City, MO 65102
1-888-ASK-MODOT (275-6636)
1-866-831-6277 (Motor Carrier Services)
Driver's License Offices
horz_bar
| | |
Missouri State Government
© 2013 Missouri Department of Transportation. All Rights Reserved.   Privacy Policy.
 
 
 
 
RSS FeedYoutubeBlogFlickrTwitter Facebook